CheckWX is a tool to help pilots better visualize weather data.  It is not intended as a substitute for an official pre-flight weather briefing.

06:58:55 UTC

KRKR METAR
Robert S Kerr Airport
Poteau, Oklahoma, USA
Current

24 mins ago

KRKR 270635Z AUTO 10SM CLR M02/M05 A3038 RMK AO2
Observed
Feb-27 @ 06:35 UTC
Visibility
10 SM
Flight Rules
VFR
Cloud Levels
  • Clear skies
Temperature
-2°C / 28°F
Dewpoint
-5°C / 23°F
Humidity
80%
Altimeter
30.38" Hg
Pressure
1028.82 hPa
Previous

44 mins ago

KRKR 270615Z AUTO 00000KT 10SM CLR M02/M05 A3039 RMK AO2
Observed
Feb-27 @ 06:15 UTC
Visibility
10 SM
Flight Rules
VFR
Cloud Levels
  • Clear skies
Temperature
-2°C / 28°F
Dewpoint
-5°C / 23°F
Humidity
80%
Altimeter
30.39" Hg
Pressure
1029.12 hPa
Previous

1 hour ago

KRKR 270555Z AUTO 00000KT 10SM CLR M02/M05 A3039 RMK AO2
Observed
Feb-27 @ 05:55 UTC
Visibility
10 SM
Flight Rules
VFR
Cloud Levels
  • Clear skies
Temperature
-2°C / 28°F
Dewpoint
-5°C / 23°F
Humidity
80%
Altimeter
30.39" Hg
Pressure
1029.12 hPa